Lampasas, TX

2:05 AM CDT on July 29, 2015 (GMT -0500)
Lampasas | | Change Station
CLOSE
Current Station
Airport
Location: Lampasas,
Elevation: 1214 ft
Nearby Weather Stations

Elev 1214 ft 31.11 °N, 98.20 °W | Updated 10 minutes ago

Clear
Clear
81 °F
Feels Like 84 °F
N
5
Wind Variable Wind from South

Today
High -- | Low -- °F
--% Chance of Precip.
Yesterday
High -- | Low -- °F
Precip. -- in
6:47 AM 8:30 PM
Waxing Gibbous, 94% visible
Pressure 30.01 in
Visibility 7.0 miles
Clouds Clear
Heat Index 84 °F
Dew Point 71 °F
Humidity 72%
Rainfall 0.00 in
Snow Depth Not available.
UV 0 out of 12
Pollen 6.10 out of 12
Air Quality Not available.
Flu Activity Not available.
METAR KLZZ 290655Z AUTO 18004KT 7SM CLR 27/22 A3001 RMK AO2 T02700216 PWINO

More Conditions Fewer Conditions

Pressure 30.01 in
Visibility 7.0 miles
Clouds Clear
Heat Index 84 °F
Dew Point 71 °F
Humidity 72%
Rainfall 0.00 in
Snow Depth Not available.
UV 0 out of 12
Pollen 6.10 out of 12
Air Quality Not available.
Flu Activity Not available.
METAR KLZZ 290655Z AUTO 18004KT 7SM CLR 27/22 A3001 RMK AO2 T02700216 PWINO

More Conditions Fewer Conditions

10-Day Weather Forecast

×

Almanac

Astronomy

Jul. 29, 2015 Rise Set
Actual Time
Civil Twilight
Nautical Twilight
Astronomical Twilight
Moon
Length of Visible Light
Length of Day
Tomorrow will be .
, % of the Moon is Illuminated

Today's Extremes

State Highs State Lows

Community

WunderPhotos

Upload Photos

1,842,061 photos uploaded!

WunderBlogs® & News

Nearby

Air Quality

  Air Quality AQ Index Pollutant
Not available.

Snow Depth

Station Depth Elevation

Earthquake Activity

City Distance Mag. Time & Date
Minimum magnitude displayed is 2.5.

Coastal Water Temperatures

Place Temperature

Stations

Nearby Weather Stations

Station Location Temp. Windchill Dew Point Humidity Wind Precip. Elev Updated Type